sensor_id;sensor_type;location;lat;lon;timestamp;pressure;altitude;pressure_sealevel;temperature;humidity
47726;BME280;33483;48.294;16.388;2023-04-29T00:01:58;99306.44;;;11.17;100.00
47726;BME280;33483;48.294;16.388;2023-04-29T00:04:25;99297.38;;;11.16;100.00
47726;BME280;33483;48.294;16.388;2023-04-29T00:06:53;99304.44;;;11.17;100.00
47726;BME280;33483;48.294;16.388;2023-04-29T00:09:20;99307.38;;;11.19;100.00
47726;BME280;33483;48.294;16.388;2023-04-29T00:11:48;99306.66;;;11.19;100.00
47726;BME280;33483;48.294;16.388;2023-04-29T00:14:16;99305.56;;;11.22;100.00
47726;BME280;33483;48.294;16.388;2023-04-29T00:16:45;99309.63;;;11.21;100.00
47726;BME280;33483;48.294;16.388;2023-04-29T00:19:12;99308.34;;;11.22;100.00
47726;BME280;33483;48.294;16.388;2023-04-29T00:21:45;99309.28;;;11.24;100.00
47726;BME280;33483;48.294;16.388;2023-04-29T00:24:12;99306.00;;;11.26;100.00
47726;BME280;33483;48.294;16.388;2023-04-29T00:26:39;99299.69;;;11.25;100.00
47726;BME280;33483;48.294;16.388;2023-04-29T00:29:07;99304.38;;;11.30;100.00
47726;BME280;33483;48.294;16.388;2023-04-29T00:31:34;99301.59;;;11.30;100.00
47726;BME280;33483;48.294;16.388;2023-04-29T00:34:03;99307.16;;;11.30;100.00
47726;BME280;33483;48.294;16.388;2023-04-29T00:36:30;99298.81;;;11.30;100.00
47726;BME280;33483;48.294;16.388;2023-04-29T00:38:58;99288.59;;;11.25;100.00
47726;BME280;33483;48.294;16.388;2023-04-29T00:41:25;99283.06;;;11.25;100.00
47726;BME280;33483;48.294;16.388;2023-04-29T00:43:52;99289.34;;;11.26;100.00
47726;BME280;33483;48.294;16.388;2023-04-29T00:46:20;99287.84;;;11.25;100.00
47726;BME280;33483;48.294;16.388;2023-04-29T00:48:46;99298.94;;;11.25;100.00
47726;BME280;33483;48.294;16.388;2023-04-29T00:51:14;99302.25;;;11.23;100.00
47726;BME280;33483;48.294;16.388;2023-04-29T00:53:42;99290.94;;;11.21;100.00
47726;BME280;33483;48.294;16.388;2023-04-29T00:56:10;99299.06;;;11.19;100.00
47726;BME280;33483;48.294;16.388;2023-04-29T00:58:37;99288.50;;;11.18;100.00
47726;BME280;33483;48.294;16.388;2023-04-29T01:01:05;99295.03;;;11.20;100.00
47726;BME280;33483;48.294;16.388;2023-04-29T01:03:32;99295.03;;;11.20;100.00
47726;BME280;33483;48.294;16.388;2023-04-29T01:06:05;99290.75;;;11.19;100.00
47726;BME280;33483;48.294;16.388;2023-04-29T01:08:43;99290.00;;;11.19;100.00
47726;BME280;33483;48.294;16.388;2023-04-29T01:11:14;99290.75;;;11.19;100.00
47726;BME280;33483;48.294;16.388;2023-04-29T01:13:45;99290.00;;;11.19;100.00
47726;BME280;33483;48.294;16.388;2023-04-29T01:21:47;99287.09;;;11.24;100.00
47726;BME280;33483;48.294;16.388;2023-04-29T01:24:16;99296.72;;;11.23;100.00
47726;BME280;33483;48.294;16.388;2023-04-29T01:26:56;99281.34;;;11.22;100.00
47726;BME280;33483;48.294;16.388;2023-04-29T01:32:18;99281.34;;;11.22;100.00
47726;BME280;33483;48.294;16.388;2023-04-29T01:35:39;99282.09;;;11.23;100.00
47726;BME280;33483;48.294;16.388;2023-04-29T01:37:46;99278.59;;;11.22;100.00
47726;BME280;33483;48.294;16.388;2023-04-29T01:40:19;99280.06;;;11.23;100.00
47726;BME280;33483;48.294;16.388;2023-04-29T01:43:04;99276.75;;;11.25;100.00
47726;BME280;33483;48.294;16.388;2023-04-29T01:45:39;99274.53;;;11.23;100.00
47726;BME280;33483;48.294;16.388;2023-04-29T01:48:10;99280.81;;;11.24;100.00
47726;BME280;33483;48.294;16.388;2023-04-29T01:50:38;99281.22;;;11.28;100.00
47726;BME280;33483;48.294;16.388;2023-04-29T01:53:10;99285.28;;;11.27;100.00
47726;BME280;33483;48.294;16.388;2023-04-29T01:55:37;99290.84;;;11.27;100.00
47726;BME280;33483;48.294;16.388;2023-04-29T01:58:20;99288.59;;;11.25;100.00
47726;BME280;33483;48.294;16.388;2023-04-29T02:01:00;99274.19;;;11.27;100.00
47726;BME280;33483;48.294;16.388;2023-04-29T02:03:30;99287.50;;;11.28;100.00
47726;BME280;33483;48.294;16.388;2023-04-29T02:05:59;99290.06;;;11.26;100.00
47726;BME280;33483;48.294;16.388;2023-04-29T02:08:27;99288.81;;;11.27;100.00
47726;BME280;33483;48.294;16.388;2023-04-29T02:10:58;99280.81;;;11.24;100.00
47726;BME280;33483;48.294;16.388;2023-04-29T02:13:44;99282.63;;;11.21;100.00
47726;BME280;33483;48.294;16.388;2023-04-29T02:16:12;99287.44;;;11.21;100.00
47726;BME280;33483;48.294;16.388;2023-04-29T02:18:52;99289.47;;;11.20;100.00
47726;BME280;33483;48.294;16.388;2023-04-29T02:21:20;99283.94;;;11.20;100.00
47726;BME280;33483;48.294;16.388;2023-04-29T02:23:47;99290.19;;;11.21;100.00
47726;BME280;33483;48.294;16.388;2023-04-29T02:26:14;99282.41;;;11.19;100.00
47726;BME280;33483;48.294;16.388;2023-04-29T02:28:41;99281.69;;;11.19;100.00
47726;BME280;33483;48.294;16.388;2023-04-29T02:31:08;99274.63;;;11.18;100.00
47726;BME280;33483;48.294;16.388;2023-04-29T02:33:35;99269.63;;;11.16;100.00
47726;BME280;33483;48.294;16.388;2023-04-29T02:36:08;99275.94;;;11.17;100.00
47726;BME280;33483;48.294;16.388;2023-04-29T02:38:35;99273.91;;;11.17;100.00
47726;BME280;33483;48.294;16.388;2023-04-29T02:41:02;99276.69;;;11.17;100.00
47726;BME280;33483;48.294;16.388;2023-04-29T02:43:29;99275.94;;;11.17;100.00
47726;BME280;33483;48.294;16.388;2023-04-29T02:45:57;99272.41;;;11.16;100.00
47726;BME280;33483;48.294;16.388;2023-04-29T02:48:26;99275.19;;;11.16;100.00
47726;BME280;33483;48.294;16.388;2023-04-29T02:50:53;99269.63;;;11.16;100.00
47726;BME280;33483;48.294;16.388;2023-04-29T02:53:20;99257.59;;;11.14;100.00
47726;BME280;33483;48.294;16.388;2023-04-29T02:55:47;99259.63;;;11.13;100.00
47726;BME280;33483;48.294;16.388;2023-04-29T02:58:14;99247.78;;;11.13;100.00
47726;BME280;33483;48.294;16.388;2023-04-29T03:00:42;99261.84;;;11.15;100.00
47726;BME280;33483;48.294;16.388;2023-04-29T03:03:09;99273.38;;;11.19;100.00
47726;BME280;33483;48.294;16.388;2023-04-29T03:05:39;99272.41;;;11.16;100.00
47726;BME280;33483;48.294;16.388;2023-04-29T03:08:06;99274.63;;;11.18;100.00
47726;BME280;33483;48.294;16.388;2023-04-29T03:10:38;99277.41;;;11.18;100.00
47726;BME280;33483;48.294;16.388;2023-04-29T03:13:07;99277.41;;;11.18;100.00
47726;BME280;33483;48.294;16.388;2023-04-29T03:15:36;99279.25;;;11.15;100.00
47726;BME280;33483;48.294;16.388;2023-04-29T03:18:03;99277.75;;;11.14;100.00
47726;BME280;33483;48.294;16.388;2023-04-29T03:20:32;99273.69;;;11.15;100.00
47726;BME280;33483;48.294;16.388;2023-04-29T03:23:02;99273.16;;;11.17;100.00
47726;BME280;33483;48.294;16.388;2023-04-29T03:25:29;99272.41;;;11.16;100.00
47726;BME280;33483;48.294;16.388;2023-04-29T03:27:57;99275.72;;;11.15;100.00
47726;BME280;33483;48.294;16.388;2023-04-29T03:30:24;99283.28;;;11.14;100.00
47726;BME280;33483;48.294;16.388;2023-04-29T03:32:55;99271.88;;;11.18;100.00
47726;BME280;33483;48.294;16.388;2023-04-29T03:35:24;99271.47;;;11.14;100.00
47726;BME280;33483;48.294;16.388;2023-04-29T03:38:12;99268.47;;;11.12;100.00
47726;BME280;33483;48.294;16.388;2023-04-29T03:40:39;99276.47;;;11.15;100.00
47726;BME280;33483;48.294;16.388;2023-04-29T03:43:07;99274.44;;;11.16;100.00
47726;BME280;33483;48.294;16.388;2023-04-29T03:45:35;99274.75;;;11.12;100.00
47726;BME280;33483;48.294;16.388;2023-04-29T03:48:04;99267.06;;;11.18;100.00
47726;BME280;33483;48.294;16.388;2023-04-29T03:50:31;99269.63;;;11.16;100.00
47726;BME280;33483;48.294;16.388;2023-04-29T03:52:58;99276.47;;;11.15;100.00
47726;BME280;33483;48.294;16.388;2023-04-29T03:55:25;99273.69;;;11.15;100.00
47726;BME280;33483;48.294;16.388;2023-04-29T03:57:55;99278.72;;;11.17;100.00
47726;BME280;33483;48.294;16.388;2023-04-29T04:00:22;99279.66;;;11.19;100.00
47726;BME280;33483;48.294;16.388;2023-04-29T04:02:54;99289.25;;;11.18;100.00
47726;BME280;33483;48.294;16.388;2023-04-29T04:05:22;99282.22;;;11.17;100.00
47726;BME280;33483;48.294;16.388;2023-04-29T04:08:03;99278.38;;;11.20;100.00
47726;BME280;33483;48.294;16.388;2023-04-29T04:10:45;99279.09;;;11.21;100.00
47726;BME280;33483;48.294;16.388;2023-04-29T04:13:34;99289.75;;;11.30;100.00
47726;BME280;33483;48.294;16.388;2023-04-29T04:16:03;99280.16;;;11.31;100.00
47726;BME280;33483;48.294;16.388;2023-04-29T04:18:30;99290.50;;;11.30;100.00
47726;BME280;33483;48.294;16.388;2023-04-29T04:21:03;99283.47;;;11.29;100.00
47726;BME280;33483;48.294;16.388;2023-04-29T04:23:31;99297.53;;;11.31;100.00
47726;BME280;33483;48.294;16.388;2023-04-29T04:25:59;99291.97;;;11.31;100.00
47726;BME280;33483;48.294;16.388;2023-04-29T04:28:59;99300.94;;;11.38;100.00
47726;BME280;33483;48.294;16.388;2023-04-29T04:31:49;99288.16;;;11.34;100.00
47726;BME280;33483;48.294;16.388;2023-04-29T04:34:18;99290.16;;;11.34;100.00
47726;BME280;33483;48.294;16.388;2023-04-29T04:36:48;99288.69;;;11.33;100.00
47726;BME280;33483;48.294;16.388;2023-04-29T04:39:16;99296.47;;;11.34;100.00
47726;BME280;33483;48.294;16.388;2023-04-29T04:41:43;99292.63;;;11.38;100.00
47726;BME280;33483;48.294;16.388;2023-04-29T04:44:10;99294.84;;;11.39;100.00
47726;BME280;33483;48.294;16.388;2023-04-29T04:46:49;99295.06;;;11.41;100.00
47726;BME280;33483;48.294;16.388;2023-04-29T04:49:30;99292.16;;;11.47;100.00
47726;BME280;33483;48.294;16.388;2023-04-29T04:51:57;99294.59;;;11.50;100.00
47726;BME280;33483;48.294;16.388;2023-04-29T04:54:25;99285.72;;;11.52;100.00
47726;BME280;33483;48.294;16.388;2023-04-29T04:57:02;99292.22;;;11.54;100.00
47726;BME280;33483;48.294;16.388;2023-04-29T04:59:32;99294.66;;;11.58;100.00
47726;BME280;33483;48.294;16.388;2023-04-29T05:02:00;99289.31;;;11.60;100.00
47726;BME280;33483;48.294;16.388;2023-04-29T05:04:28;99297.84;;;11.62;100.00
47726;BME280;33483;48.294;16.388;2023-04-29T05:06:55;99300.41;;;11.60;100.00
47726;BME280;33483;48.294;16.388;2023-04-29T05:09:30;99303.41;;;11.62;100.00
47726;BME280;33483;48.294;16.388;2023-04-29T05:11:57;99300.63;;;11.62;100.00
47726;BME280;33483;48.294;16.388;2023-04-29T05:14:27;99308.19;;;11.61;100.00
47726;BME280;33483;48.294;16.388;2023-04-29T05:16:59;99298.09;;;11.51;100.00
47726;BME280;33483;48.294;16.388;2023-04-29T05:19:27;99296.41;;;11.48;100.00
47726;BME280;33483;48.294;16.388;2023-04-29T05:21:54;99300.69;;;11.49;100.00
47726;BME280;33483;48.294;16.388;2023-04-29T05:24:22;99309.47;;;11.40;100.00
47726;BME280;33483;48.294;16.388;2023-04-29T05:26:50;99296.13;;;11.38;100.00
47726;BME280;33483;48.294;16.388;2023-04-29T05:29:19;99305.34;;;11.33;100.00
47726;BME280;33483;48.294;16.388;2023-04-29T05:31:54;99293.50;;;11.32;100.00
47726;BME280;33483;48.294;16.388;2023-04-29T05:34:21;99306.47;;;11.38;100.00
47726;BME280;33483;48.294;16.388;2023-04-29T05:36:48;99297.75;;;11.33;100.00
47726;BME280;33483;48.294;16.388;2023-04-29T05:39:15;99301.34;;;11.42;100.00
47726;BME280;33483;48.294;16.388;2023-04-29T05:41:46;99307.31;;;11.46;100.00
47726;BME280;33483;48.294;16.388;2023-04-29T05:44:18;99305.56;;;11.56;100.00
47726;BME280;33483;48.294;16.388;2023-04-29T05:46:45;99311.50;;;11.60;100.00
47726;BME280;33483;48.294;16.388;2023-04-29T05:49:17;99312.50;;;11.49;100.00
47726;BME280;33483;48.294;16.388;2023-04-29T05:51:45;99318.81;;;11.50;100.00
47726;BME280;33483;48.294;16.388;2023-04-29T05:54:12;99322.94;;;11.56;100.00
47726;BME280;33483;48.294;16.388;2023-04-29T05:56:39;99321.34;;;11.61;100.00
47726;BME280;33483;48.294;16.388;2023-04-29T05:59:08;99319.22;;;11.67;100.00
47726;BME280;33483;48.294;16.388;2023-04-29T06:01:35;99317.94;;;11.68;100.00
47726;BME280;33483;48.294;16.388;2023-04-29T06:04:03;99328.03;;;11.78;100.00
47726;BME280;33483;48.294;16.388;2023-04-29T06:06:50;99327.75;;;11.89;100.00
47726;BME280;33483;48.294;16.388;2023-04-29T06:09:25;99321.94;;;12.00;100.00
47726;BME280;33483;48.294;16.388;2023-04-29T06:11:58;99316.44;;;12.08;100.00
47726;BME280;33483;48.294;16.388;2023-04-29T06:14:26;99326.88;;;12.15;100.00
47726;BME280;33483;48.294;16.388;2023-04-29T06:16:53;99329.50;;;12.20;100.00
47726;BME280;33483;48.294;16.388;2023-04-29T06:19:20;99329.16;;;12.24;100.00
47726;BME280;33483;48.294;16.388;2023-04-29T06:21:48;99338.31;;;12.32;100.00
47726;BME280;33483;48.294;16.388;2023-04-29T06:24:15;99334.44;;;12.35;100.00
47726;BME280;33483;48.294;16.388;2023-04-29T06:26:42;99340.25;;;12.44;100.00
47726;BME280;33483;48.294;16.388;2023-04-29T06:29:10;99341.19;;;12.47;100.00
47726;BME280;33483;48.294;16.388;2023-04-29T06:31:40;99343.06;;;12.52;100.00
47726;BME280;33483;48.294;16.388;2023-04-29T06:34:08;99340.41;;;12.67;100.00
47726;BME280;33483;48.294;16.388;2023-04-29T06:36:45;99333.13;;;12.92;100.00
47726;BME280;33483;48.294;16.388;2023-04-29T06:39:33;99333.81;;;13.13;100.00
47726;BME280;33483;48.294;16.388;2023-04-29T06:42:17;99337.59;;;13.31;100.00
47726;BME280;33483;48.294;16.388;2023-04-29T06:45:04;99344.13;;;13.48;100.00
47726;BME280;33483;48.294;16.388;2023-04-29T06:47:41;99342.13;;;13.56;100.00
47726;BME280;33483;48.294;16.388;2023-04-29T06:50:12;99348.28;;;13.63;100.00
47726;BME280;33483;48.294;16.388;2023-04-29T06:52:39;99353.28;;;13.64;100.00
47726;BME280;33483;48.294;16.388;2023-04-29T06:55:08;99353.13;;;13.77;100.00
47726;BME280;33483;48.294;16.388;2023-04-29T06:57:37;99356.47;;;13.83;100.00
47726;BME280;33483;48.294;16.388;2023-04-29T07:00:05;99359.28;;;13.98;100.00
47726;BME280;33483;48.294;16.388;2023-04-29T07:02:32;99350.75;;;14.11;100.00
47726;BME280;33483;48.294;16.388;2023-04-29T07:05:04;99352.06;;;14.18;100.00
47726;BME280;33483;48.294;16.388;2023-04-29T07:07:32;99355.03;;;14.73;100.00
47726;BME280;33483;48.294;16.388;2023-04-29T07:09:59;99347.09;;;15.16;100.00
47726;BME280;33483;48.294;16.388;2023-04-29T07:12:28;99346.38;;;15.55;100.00
47726;BME280;33483;48.294;16.388;2023-04-29T07:14:56;99350.06;;;15.65;100.00
47726;BME280;33483;48.294;16.388;2023-04-29T07:17:27;99344.41;;;15.73;100.00
47726;BME280;33483;48.294;16.388;2023-04-29T07:19:55;99349.59;;;16.09;100.00
47726;BME280;33483;48.294;16.388;2023-04-29T07:22:22;99357.41;;;18.25;100.00
47726;BME280;33483;48.294;16.388;2023-04-29T07:24:53;99353.69;;;18.22;100.00
47726;BME280;33483;48.294;16.388;2023-04-29T07:27:21;99364.63;;;17.91;100.00
47726;BME280;33483;48.294;16.388;2023-04-29T07:29:48;99364.25;;;17.51;100.00
47726;BME280;33483;48.294;16.388;2023-04-29T07:32:15;99366.56;;;18.90;100.00
47726;BME280;33483;48.294;16.388;2023-04-29T07:34:45;99360.53;;;18.84;100.00
47726;BME280;33483;48.294;16.388;2023-04-29T07:37:14;99366.16;;;19.22;100.00
47726;BME280;33483;48.294;16.388;2023-04-29T07:39:41;99365.38;;;18.74;100.00
47726;BME280;33483;48.294;16.388;2023-04-29T07:42:11;99369.25;;;18.88;100.00
47726;BME280;33483;48.294;16.388;2023-04-29T07:44:41;99359.81;;;17.75;100.00
47726;BME280;33483;48.294;16.388;2023-04-29T07:47:11;99366.75;;;17.74;100.00
47726;BME280;33483;48.294;16.388;2023-04-29T07:49:39;99361.19;;;17.57;100.00
47726;BME280;33483;48.294;16.388;2023-04-29T07:52:09;99366.16;;;17.75;100.00
47726;BME280;33483;48.294;16.388;2023-04-29T07:54:37;99368.88;;;18.10;100.00
47726;BME280;33483;48.294;16.388;2023-04-29T07:57:04;99365.31;;;18.45;100.00
47726;BME280;33483;48.294;16.388;2023-04-29T07:59:33;99364.44;;;18.43;100.00
47726;BME280;33483;48.294;16.388;2023-04-29T08:02:01;99365.31;;;18.09;100.00
47726;BME280;33483;48.294;16.388;2023-04-29T08:04:29;99365.75;;;18.15;100.00
47726;BME280;33483;48.294;16.388;2023-04-29T08:07:07;99372.03;;;18.33;100.00
47726;BME280;33483;48.294;16.388;2023-04-29T08:09:35;99375.03;;;19.28;100.00
47726;BME280;33483;48.294;16.388;2023-04-29T08:12:03;99369.78;;;20.32;100.00
47726;BME280;33483;48.294;16.388;2023-04-29T08:14:31;99382.47;;;20.73;100.00
47726;BME280;33483;48.294;16.388;2023-04-29T08:16:59;99384.78;;;19.65;100.00
47726;BME280;33483;48.294;16.388;2023-04-29T08:19:26;99382.09;;;19.00;100.00
47726;BME280;33483;48.294;16.388;2023-04-29T08:21:53;99378.91;;;18.49;100.00
47726;BME280;33483;48.294;16.388;2023-04-29T08:24:21;99382.06;;;18.26;100.00
47726;BME280;33483;48.294;16.388;2023-04-29T08:26:48;99379.91;;;18.08;100.00
47726;BME280;33483;48.294;16.388;2023-04-29T08:29:21;99377.69;;;18.06;100.00
47726;BME280;33483;48.294;16.388;2023-04-29T08:31:48;99375.94;;;18.11;100.00
47726;BME280;33483;48.294;16.388;2023-04-29T08:34:20;99372.63;;;17.68;100.00
47726;BME280;33483;48.294;16.388;2023-04-29T08:36:47;99371.66;;;17.39;100.00
47726;BME280;33483;48.294;16.388;2023-04-29T08:39:14;99374.78;;;17.60;100.00
47726;BME280;33483;48.294;16.388;2023-04-29T08:41:43;99368.44;;;17.60;100.00
47726;BME280;33483;48.294;16.388;2023-04-29T08:44:15;99375.88;;;17.48;100.00
47726;BME280;33483;48.294;16.388;2023-04-29T08:46:44;99379.28;;;17.73;100.00
47726;BME280;33483;48.294;16.388;2023-04-29T08:49:12;99379.25;;;17.90;100.00
47726;BME280;33483;48.294;16.388;2023-04-29T08:51:40;99376.31;;;17.97;100.00
47726;BME280;33483;48.294;16.388;2023-04-29T08:54:07;99373.44;;;18.15;100.00
47726;BME280;33483;48.294;16.388;2023-04-29T08:56:34;99372.72;;;18.24;100.00
47726;BME280;33483;48.294;16.388;2023-04-29T08:59:03;99372.34;;;17.74;100.00
47726;BME280;33483;48.294;16.388;2023-04-29T09:01:30;99377.00;;;17.28;100.00
47726;BME280;33483;48.294;16.388;2023-04-29T09:04:03;99375.78;;;17.04;100.00
47726;BME280;33483;48.294;16.388;2023-04-29T09:06:34;99372.25;;;16.86;100.00
47726;BME280;33483;48.294;16.388;2023-04-29T09:09:01;99364.25;;;16.66;100.00
47726;BME280;33483;48.294;16.388;2023-04-29T09:11:31;99369.81;;;16.49;100.00
47726;BME280;33483;48.294;16.388;2023-04-29T09:14:02;99371.63;;;16.29;100.00
47726;BME280;33483;48.294;16.388;2023-04-29T09:16:39;99374.22;;;16.03;100.00
47726;BME280;33483;48.294;16.388;2023-04-29T09:19:06;99368.91;;;15.90;100.00
47726;BME280;33483;48.294;16.388;2023-04-29T09:21:34;99376.69;;;15.66;100.00
47726;BME280;33483;48.294;16.388;2023-04-29T09:24:02;99371.22;;;15.44;100.00
47726;BME280;33483;48.294;16.388;2023-04-29T09:26:39;99371.72;;;15.50;100.00
47726;BME280;33483;48.294;16.388;2023-04-29T09:29:08;99371.50;;;15.63;100.00
47726;BME280;33483;48.294;16.388;2023-04-29T09:31:37;99369.56;;;15.73;100.00
47726;BME280;33483;48.294;16.388;2023-04-29T09:34:09;99359.56;;;15.95;100.00
47726;BME280;33483;48.294;16.388;2023-04-29T09:36:45;99352.44;;;16.01;100.00
47726;BME280;33483;48.294;16.388;2023-04-29T09:39:16;99364.38;;;16.51;100.00
47726;BME280;33483;48.294;16.388;2023-04-29T09:44:20;99369.94;;;17.27;100.00
47726;BME280;33483;48.294;16.388;2023-04-29T09:46:57;99369.56;;;17.74;100.00
47726;BME280;33483;48.294;16.388;2023-04-29T09:49:25;99379.81;;;17.88;100.00
47726;BME280;33483;48.294;16.388;2023-04-29T09:51:57;99390.38;;;18.34;100.00
47726;BME280;33483;48.294;16.388;2023-04-29T09:54:27;99391.41;;;18.02;100.00
47726;BME280;33483;48.294;16.388;2023-04-29T09:56:55;99387.81;;;18.28;100.00
47726;BME280;33483;48.294;16.388;2023-04-29T09:59:25;99386.09;;;18.97;100.00
47726;BME280;33483;48.294;16.388;2023-04-29T10:01:53;99394.25;;;19.03;100.00
47726;BME280;33483;48.294;16.388;2023-04-29T10:04:21;99386.72;;;19.05;100.00
47726;BME280;33483;48.294;16.388;2023-04-29T10:06:50;99387.41;;;19.82;100.00
47726;BME280;33483;48.294;16.388;2023-04-29T10:09:18;99395.28;;;19.74;100.00
47726;BME280;33483;48.294;16.388;2023-04-29T10:11:47;99390.94;;;20.42;100.00
47726;BME280;33483;48.294;16.388;2023-04-29T10:14:15;99395.13;;;22.35;100.00
47726;BME280;33483;48.294;16.388;2023-04-29T10:16:49;99417.38;;;23.85;100.00
47726;BME280;33483;48.294;16.388;2023-04-29T10:22:18;99407.03;;;24.81;82.34
47726;BME280;33483;48.294;16.388;2023-04-29T10:24:50;99402.22;;;25.12;78.99
47726;BME280;33483;48.294;16.388;2023-04-29T10:27:20;99394.09;;;24.78;77.34
47726;BME280;33483;48.294;16.388;2023-04-29T10:29:51;99389.50;;;25.27;76.65
47726;BME280;33483;48.294;16.388;2023-04-29T10:32:18;99389.28;;;25.66;69.48
47726;BME280;33483;48.294;16.388;2023-04-29T10:34:47;99384.75;;;25.90;72.01
47726;BME280;33483;48.294;16.388;2023-04-29T10:37:19;99376.78;;;25.41;63.45
47726;BME280;33483;48.294;16.388;2023-04-29T10:39:49;99381.59;;;24.83;66.71
47726;BME280;33483;48.294;16.388;2023-04-29T10:42:26;99376.69;;;24.04;64.90
47726;BME280;33483;48.294;16.388;2023-04-29T10:53:01;99346.03;;;20.04;100.00
47726;BME280;33483;48.294;16.388;2023-04-29T10:55:34;99347.16;;;19.80;100.00
47726;BME280;33483;48.294;16.388;2023-04-29T10:58:02;99350.63;;;19.50;100.00
47726;BME280;33483;48.294;16.388;2023-04-29T11:00:33;99341.31;;;19.28;100.00
47726;BME280;33483;48.294;16.388;2023-04-29T11:03:04;99335.06;;;18.63;100.00
47726;BME280;33483;48.294;16.388;2023-04-29T11:05:32;99326.22;;;18.66;100.00
47726;BME280;33483;48.294;16.388;2023-04-29T11:10:42;99321.50;;;18.88;100.00
47726;BME280;33483;48.294;16.388;2023-04-29T11:15:53;99328.72;;;18.62;100.00
47726;BME280;33483;48.294;16.388;2023-04-29T11:18:29;99321.31;;;18.12;100.00
47726;BME280;33483;48.294;16.388;2023-04-29T11:23:35;99320.84;;;18.42;100.00
47726;BME280;33483;48.294;16.388;2023-04-29T11:26:03;99321.81;;;18.27;100.00
47726;BME280;33483;48.294;16.388;2023-04-29T11:28:34;99322.31;;;18.07;100.00
47726;BME280;33483;48.294;16.388;2023-04-29T11:31:06;99324.19;;;17.94;100.00
47726;BME280;33483;48.294;16.388;2023-04-29T11:33:33;99320.63;;;17.84;100.00
47726;BME280;33483;48.294;16.388;2023-04-29T11:36:00;99319.41;;;17.78;100.00
47726;BME280;33483;48.294;16.388;2023-04-29T11:38:30;99308.25;;;17.61;100.00
47726;BME280;33483;48.294;16.388;2023-04-29T11:40:58;99299.97;;;17.53;100.00
47726;BME280;33483;48.294;16.388;2023-04-29T11:43:25;99293.28;;;17.49;100.00
47726;BME280;33483;48.294;16.388;2023-04-29T11:45:54;99300.72;;;17.37;100.00
47726;BME280;33483;48.294;16.388;2023-04-29T11:48:24;99301.81;;;17.24;100.00
47726;BME280;33483;48.294;16.388;2023-04-29T11:50:52;99301.03;;;17.41;100.00
47726;BME280;33483;48.294;16.388;2023-04-29T11:53:21;99302.63;;;17.34;100.00
47726;BME280;33483;48.294;16.388;2023-04-29T11:55:54;99312.38;;;17.16;100.00
47726;BME280;33483;48.294;16.388;2023-04-29T11:58:22;99319.47;;;17.00;100.00
47726;BME280;33483;48.294;16.388;2023-04-29T12:00:52;99318.97;;;17.11;100.00
47726;BME280;33483;48.294;16.388;2023-04-29T12:03:22;99309.75;;;17.01;100.00
47726;BME280;33483;48.294;16.388;2023-04-29T12:08:21;99299.56;;;16.96;100.00
47726;BME280;33483;48.294;16.388;2023-04-29T12:10:48;99302.44;;;16.88;100.00
47726;BME280;33483;48.294;16.388;2023-04-29T12:13:16;99313.69;;;16.98;100.00
47726;BME280;33483;48.294;16.388;2023-04-29T12:15:44;99318.06;;;16.92;100.00
47726;BME280;33483;48.294;16.388;2023-04-29T12:18:14;99317.41;;;16.83;100.00
47726;BME280;33483;48.294;16.388;2023-04-29T12:20:42;99317.25;;;16.64;100.00
47726;BME280;33483;48.294;16.388;2023-04-29T12:23:13;99323.66;;;16.57;100.00
47726;BME280;33483;48.294;16.388;2023-04-29T12:25:40;99320.28;;;16.59;100.00
47726;BME280;33483;48.294;16.388;2023-04-29T12:28:12;99323.25;;;16.61;100.00
47726;BME280;33483;48.294;16.388;2023-04-29T12:30:39;99320.81;;;16.82;100.00
47726;BME280;33483;48.294;16.388;2023-04-29T12:33:09;99327.03;;;16.90;100.00
47726;BME280;33483;48.294;16.388;2023-04-29T12:35:36;99324.06;;;17.05;100.00
47726;BME280;33483;48.294;16.388;2023-04-29T12:38:04;99322.91;;;17.25;100.00
47726;BME280;33483;48.294;16.388;2023-04-29T12:40:32;99323.94;;;17.30;100.00
47726;BME280;33483;48.294;16.388;2023-04-29T12:43:06;99325.06;;;17.00;100.00
47726;BME280;33483;48.294;16.388;2023-04-29T12:45:37;99326.47;;;16.74;100.00
47726;BME280;33483;48.294;16.388;2023-04-29T12:48:04;99326.88;;;16.54;100.00
47726;BME280;33483;48.294;16.388;2023-04-29T12:50:40;99330.47;;;16.47;100.00
47726;BME280;33483;48.294;16.388;2023-04-29T12:53:10;99333.63;;;16.26;100.00
47726;BME280;33483;48.294;16.388;2023-04-29T12:55:37;99309.94;;;16.03;100.00
47726;BME280;33483;48.294;16.388;2023-04-29T12:58:04;99291.75;;;15.94;100.00
47726;BME280;33483;48.294;16.388;2023-04-29T13:00:32;99306.88;;;15.91;100.00
47726;BME280;33483;48.294;16.388;2023-04-29T13:03:01;99315.19;;;15.99;100.00
47726;BME280;33483;48.294;16.388;2023-04-29T13:05:28;99306.56;;;16.04;100.00
47726;BME280;33483;48.294;16.388;2023-04-29T13:07:56;99303.31;;;16.15;100.00
47726;BME280;33483;48.294;16.388;2023-04-29T13:10:23;99292.38;;;16.51;100.00
47726;BME280;33483;48.294;16.388;2023-04-29T13:12:50;99292.53;;;16.70;100.00
47726;BME280;33483;48.294;16.388;2023-04-29T13:15:17;99282.91;;;16.81;100.00
47726;BME280;33483;48.294;16.388;2023-04-29T13:17:44;99279.03;;;16.94;100.00
47726;BME280;33483;48.294;16.388;2023-04-29T13:20:14;99279.69;;;17.19;100.00
47726;BME280;33483;48.294;16.388;2023-04-29T13:22:41;99292.22;;;17.44;100.00
47726;BME280;33483;48.294;16.388;2023-04-29T13:25:10;99290.75;;;17.43;100.00
47726;BME280;33483;48.294;16.388;2023-04-29T13:27:38;99289.38;;;17.61;100.00